Time;durP1;ratioP1;P1;durP2;ratioP2;P2;SDS_P1;SDS_P2;PMS_P1;PMS_P2;Temp;Humidity;BMP_temperature;BMP_pressure;BME280_temperature;BME280_humidity;BME280_pressure;Samples;Min_cycle;Max_cycle;Signal;HPM_P1;HPM_P2
2021/07/30 00:01:11;;;;;;;16.35;15.02;;;18.00;82.80;;;;;;5037277;29;20535;-70
2021/07/30 00:03:43;;;;;;;15.52;14.05;;;17.90;83.60;;;;;;5035460;29;20049;-70
2021/07/30 00:06:31;;;;;;;16.13;14.73;;;17.90;83.80;;;;;;5037513;29;20747;-71
2021/07/30 00:09:03;;;;;;;15.48;14.18;;;17.90;84.10;;;;;;5033135;29;20056;-72
2021/07/30 00:11:34;;;;;;;17.20;15.48;;;17.90;83.90;;;;;;5037582;29;20503;-71
2021/07/30 00:14:07;;;;;;;15.45;14.02;;;17.90;83.60;;;;;;5038031;29;20116;-72
2021/07/30 00:16:39;;;;;;;16.15;14.65;;;17.90;84.10;;;;;;5035137;29;20148;-71
2021/07/30 00:19:11;;;;;;;16.30;14.93;;;17.90;84.40;;;;;;5036350;29;20769;-70
2021/07/30 00:21:43;;;;;;;14.57;13.38;;;17.80;84.30;;;;;;5037219;29;20076;-70
2021/07/30 00:24:15;;;;;;;14.75;13.55;;;17.90;84.10;;;;;;5008827;29;20048;-69
2021/07/30 00:26:48;;;;;;;15.20;13.95;;;17.90;84.00;;;;;;5036898;29;20935;-70
2021/07/30 00:29:20;;;;;;;15.32;13.93;;;17.90;84.00;;;;;;5037164;29;20076;-70
2021/07/30 00:31:52;;;;;;;15.35;14.13;;;17.80;84.30;;;;;;5024976;29;20560;-70
2021/07/30 00:34:24;;;;;;;16.35;14.73;;;17.90;84.90;;;;;;5021277;29;20080;-69
2021/07/30 00:36:56;;;;;;;17.25;15.63;;;17.80;84.60;;;;;;5031923;29;20053;-70
2021/07/30 00:39:28;;;;;;;15.77;14.55;;;17.80;84.50;;;;;;5034143;29;20053;-71
2021/07/30 00:42:02;;;;;;;16.38;14.77;;;17.80;83.90;;;;;;5036288;29;20244;-71
2021/07/30 00:44:34;;;;;;;16.08;14.88;;;17.80;84.00;;;;;;5037157;29;20156;-72
2021/07/30 00:47:06;;;;;;;16.00;14.70;;;17.90;85.00;;;;;;5035266;29;20052;-71
2021/07/30 00:49:39;;;;;;;16.23;14.75;;;17.90;84.50;;;;;;5034956;29;20052;-72
2021/07/30 00:52:15;;;;;;;15.27;14.07;;;17.90;84.40;;;;;;5038274;29;20468;-71
2021/07/30 00:54:47;;;;;;;16.13;14.75;;;17.90;84.10;;;;;;5038419;29;20124;-71
2021/07/30 00:57:21;;;;;;;15.90;14.55;;;17.90;84.00;;;;;;5035835;29;20072;-70
2021/07/30 00:59:53;;;;;;;16.02;14.70;;;18.00;84.40;;;;;;5036275;29;20767;-71
2021/07/30 01:02:25;;;;;;;16.80;15.30;;;18.00;84.70;;;;;;5030305;29;20139;-71
2021/07/30 01:04:57;;;;;;;16.52;15.23;;;18.00;84.50;;;;;;5035173;29;20069;-71
2021/07/30 01:07:29;;;;;;;15.95;14.65;;;18.00;85.10;;;;;;5030440;29;20073;-71
2021/07/30 01:10:02;;;;;;;17.10;15.45;;;17.90;84.70;;;;;;5017906;29;20060;-71
2021/07/30 01:12:34;;;;;;;16.40;14.93;;;17.90;85.10;;;;;;5020234;29;20171;-71
2021/07/30 01:15:07;;;;;;;16.85;15.48;;;17.90;84.70;;;;;;5037964;29;20160;-71
2021/07/30 01:17:39;;;;;;;16.50;15.13;;;17.90;85.00;;;;;;5029376;29;20091;-69
2021/07/30 01:20:11;;;;;;;16.30;14.90;;;17.90;85.20;;;;;;5037129;29;20057;-71
2021/07/30 01:22:51;;;;;;;15.93;14.73;;;17.90;85.50;;;;;;5041159;29;20132;-70
2021/07/30 01:25:24;;;;;;;15.80;14.50;;;17.80;85.30;;;;;;5039839;29;20045;-70
2021/07/30 01:27:56;;;;;;;15.98;14.70;;;17.80;85.60;;;;;;5036013;29;20468;-71
2021/07/30 01:30:28;;;;;;;15.80;14.50;;;17.70;85.90;;;;;;5034393;29;20045;-72
2021/07/30 01:33:00;;;;;;;16.35;15.05;;;17.80;85.50;;;;;;5038795;29;20373;-71
2021/07/30 01:35:32;;;;;;;17.02;15.50;;;17.80;85.60;;;;;;5038503;29;20116;-70
2021/07/30 01:38:04;;;;;;;15.57;14.23;;;17.80;85.40;;;;;;5036048;29;20045;-70
2021/07/30 01:40:36;;;;;;;15.57;14.18;;;17.70;85.20;;;;;;5036837;29;20049;-70
2021/07/30 01:43:07;;;;;;;15.88;14.50;;;17.70;85.20;;;;;;5040025;29;20128;-70
2021/07/30 01:45:39;;;;;;;14.85;13.73;;;17.60;85.30;;;;;;5037515;29;20196;-70
2021/07/30 01:48:11;;;;;;;15.90;14.70;;;17.60;85.80;;;;;;5033596;29;20184;-70
2021/07/30 01:50:43;;;;;;;16.70;15.30;;;17.60;86.00;;;;;;5017344;29;20132;-70
2021/07/30 01:53:15;;;;;;;16.40;15.05;;;17.60;86.40;;;;;;5038983;29;20652;-70
2021/07/30 01:55:47;;;;;;;16.42;15.10;;;17.60;86.40;;;;;;5037012;29;20069;-70
2021/07/30 01:58:19;;;;;;;16.13;14.70;;;17.60;85.80;;;;;;5034775;29;20100;-70
2021/07/30 02:00:52;;;;;;;15.88;14.57;;;17.60;85.70;;;;;;5036574;29;20711;-70
2021/07/30 02:03:24;;;;;;;15.63;14.25;;;17.60;85.90;;;;;;5021146;29;20077;-70
2021/07/30 02:05:56;;;;;;;15.80;14.50;;;17.60;86.30;;;;;;5040039;29;20049;-69
2021/07/30 02:08:28;;;;;;;16.67;15.18;;;17.50;86.20;;;;;;5037503;29;20073;-69
2021/07/30 02:11:00;;;;;;;16.17;14.82;;;17.50;86.70;;;;;;5037659;29;20073;-71
2021/07/30 02:16:23;;;;;;;16.15;14.70;;;17.50;86.90;;;;;;5036679;29;20520;-71
2021/07/30 02:18:55;;;;;;;15.73;14.52;;;17.60;86.90;;;;;;5037389;29;20045;-71
2021/07/30 02:21:27;;;;;;;16.52;15.13;;;17.60;86.80;;;;;;5035402;29;20135;-71
2021/07/30 02:23:59;;;;;;;15.95;14.65;;;17.60;86.70;;;;;;5037553;29;20500;-70
2021/07/30 02:26:31;;;;;;;15.52;14.32;;;17.60;86.60;;;;;;5020409;29;20106;-72
2021/07/30 02:29:04;;;;;;;15.77;14.48;;;17.60;86.70;;;;;;5034910;29;20069;-71
2021/07/30 02:31:36;;;;;;;16.23;14.75;;;17.60;86.50;;;;;;5016402;29;20128;-70
2021/07/30 02:34:09;;;;;;;16.33;15.00;;;17.60;86.60;;;;;;5018848;29;20105;-70
2021/07/30 02:36:46;;;;;;;16.40;15.00;;;17.60;86.20;;;;;;5036799;29;20045;-71
2021/07/30 02:39:18;;;;;;;17.05;15.65;;;17.70;86.40;;;;;;5035144;29;20132;-72
2021/07/30 02:41:50;;;;;;;15.68;14.48;;;17.70;86.20;;;;;;5037625;29;20073;-71
2021/07/30 02:44:22;;;;;;;16.48;15.13;;;17.70;87.00;;;;;;5025183;29;20112;-71
2021/07/30 02:46:53;;;;;;;16.23;14.68;;;17.70;86.40;;;;;;5037250;29;20124;-71
2021/07/30 02:49:25;;;;;;;16.98;15.60;;;17.70;86.10;;;;;;5034952;29;20045;-70
2021/07/30 02:51:57;;;;;;;16.33;14.90;;;17.70;86.40;;;;;;5036170;29;20072;-70
2021/07/30 02:54:29;;;;;;;16.48;14.98;;;17.70;85.90;;;;;;5011099;29;20052;-71
2021/07/30 02:57:01;;;;;;;16.65;15.15;;;17.70;86.20;;;;;;5037768;29;20552;-70
2021/07/30 02:59:33;;;;;;;16.92;15.43;;;17.80;86.00;;;;;;5020550;29;20041;-71
2021/07/30 03:02:05;;;;;;;16.98;15.35;;;17.80;86.30;;;;;;5037288;29;20098;-70
2021/07/30 03:04:38;;;;;;;16.55;15.05;;;17.80;85.90;;;;;;5035345;29;22081;-70
2021/07/30 03:07:10;;;;;;;17.13;15.73;;;17.80;85.80;;;;;;5028122;29;20061;-71
2021/07/30 03:09:42;;;;;;;16.77;15.48;;;17.80;87.00;;;;;;5039948;29;20160;-70
2021/07/30 03:12:14;;;;;;;17.08;15.68;;;17.80;86.70;;;;;;5036424;29;20136;-70
2021/07/30 03:14:46;;;;;;;16.15;14.73;;;17.70;87.30;;;;;;5035762;29;20129;-71
2021/07/30 03:17:18;;;;;;;16.90;15.30;;;17.70;87.30;;;;;;5033136;29;20049;-71
2021/07/30 03:19:49;;;;;;;16.95;15.50;;;17.70;87.30;;;;;;5034574;29;20049;-71
2021/07/30 03:22:21;;;;;;;16.38;15.07;;;17.70;87.10;;;;;;5037965;29;20551;-72
2021/07/30 03:24:53;;;;;;;17.42;16.02;;;17.70;86.90;;;;;;5036815;29;20065;-70
2021/07/30 03:27:25;;;;;;;16.60;15.30;;;17.70;87.10;;;;;;5037133;29;20110;-70
2021/07/30 03:29:58;;;;;;;16.23;15.02;;;17.70;86.40;;;;;;5017594;29;20063;-70
2021/07/30 03:32:30;;;;;;;16.48;15.07;;;17.80;86.30;;;;;;5034333;29;20076;-70
2021/07/30 03:35:02;;;;;;;16.17;14.75;;;17.70;86.30;;;;;;5039186;29;20048;-71
2021/07/30 03:37:35;;;;;;;15.93;14.63;;;17.80;86.20;;;;;;5036495;29;20053;-72
2021/07/30 03:40:07;;;;;;;16.13;14.75;;;17.70;86.70;;;;;;5012418;29;20109;-71
2021/07/30 03:42:39;;;;;;;16.08;14.68;;;17.70;86.40;;;;;;5035196;29;20101;-70
2021/07/30 03:45:11;;;;;;;16.27;14.98;;;17.70;86.10;;;;;;5021601;29;20049;-70
2021/07/30 03:47:43;;;;;;;16.70;15.40;;;17.70;86.50;;;;;;5031664;29;20072;-71
2021/07/30 03:50:15;;;;;;;15.40;14.20;;;17.70;86.00;;;;;;5032922;29;20588;-72
2021/07/30 03:52:47;;;;;;;15.80;14.48;;;17.70;86.40;;;;;;5036479;29;20049;-71
2021/07/30 03:55:18;;;;;;;15.77;14.30;;;17.60;86.30;;;;;;5034601;29;20109;-70
2021/07/30 03:57:50;;;;;;;16.15;14.85;;;17.50;86.40;;;;;;5038590;29;20057;-71
2021/07/30 04:00:22;;;;;;;16.90;15.55;;;17.60;86.30;;;;;;5021262;29;20816;-70
2021/07/30 04:02:54;;;;;;;16.63;15.13;;;17.60;86.90;;;;;;5019004;29;20171;-70
2021/07/30 04:05:26;;;;;;;16.95;15.65;;;17.50;87.00;;;;;;5031356;29;20457;-70
2021/07/30 04:07:58;;;;;;;16.40;15.10;;;17.50;87.40;;;;;;5036623;29;20056;-71
2021/07/30 04:10:31;;;;;;;16.50;15.20;;;17.50;87.90;;;;;;5034941;29;20057;-70
2021/07/30 04:13:03;;;;;;;16.00;14.50;;;17.50;87.60;;;;;;5037005;29;20503;-71
2021/07/30 04:15:35;;;;;;;17.20;15.55;;;17.40;87.40;;;;;;5034483;29;20045;-70
2021/07/30 04:18:07;;;;;;;16.48;15.07;;;17.40;87.80;;;;;;5035563;29;20052;-70
2021/07/30 04:20:39;;;;;;;17.15;15.52;;;17.40;87.60;;;;;;5036871;29;20052;-71
2021/07/30 04:23:12;;;;;;;17.60;16.00;;;17.30;87.60;;;;;;5048748;29;20124;-71
2021/07/30 04:25:44;;;;;;;16.48;15.18;;;17.30;87.30;;;;;;5008298;29;20182;-70
2021/07/30 04:28:16;;;;;;;16.70;15.40;;;17.30;87.10;;;;;;5035876;29;20130;-71
2021/07/30 04:30:48;;;;;;;17.05;15.68;;;17.40;87.30;;;;;;5034954;29;20050;-70
2021/07/30 04:33:20;;;;;;;16.77;15.35;;;17.40;88.00;;;;;;5035975;29;20104;-70
2021/07/30 04:35:52;;;;;;;16.27;14.90;;;17.30;88.10;;;;;;5036072;29;20080;-70
2021/07/30 04:38:24;;;;;;;16.52;15.13;;;17.30;87.90;;;;;;5037196;29;20076;-70
2021/07/30 04:40:56;;;;;;;17.63;15.90;;;17.30;87.50;;;;;;5035099;29;20045;-70
2021/07/30 04:43:27;;;;;;;17.77;16.17;;;17.30;87.40;;;;;;5040135;29;20080;-70
2021/07/30 04:45:59;;;;;;;16.65;15.35;;;17.40;87.30;;;;;;5039345;29;20053;-70
2021/07/30 04:48:31;;;;;;;17.17;15.77;;;17.40;87.10;;;;;;5035895;29;20037;-71
2021/07/30 04:51:03;;;;;;;17.55;16.05;;;17.40;86.60;;;;;;5034821;29;20048;-70
2021/07/30 04:53:35;;;;;;;17.10;15.43;;;17.50;87.40;;;;;;5037642;29;20049;-69
2021/07/30 04:56:07;;;;;;;16.30;15.00;;;17.50;87.50;;;;;;5040149;29;20061;-70
2021/07/30 04:58:39;;;;;;;16.73;15.25;;;17.60;87.20;;;;;;5040106;29;21028;-69
2021/07/30 05:01:11;;;;;;;16.70;15.40;;;17.60;86.20;;;;;;5037382;29;20054;-70
2021/07/30 05:03:43;;;;;;;16.42;15.13;;;17.70;86.70;;;;;;5036036;29;20542;-69
2021/07/30 05:06:17;;;;;;;17.60;16.05;;;17.80;87.10;;;;;;5042058;29;20048;-70
2021/07/30 05:08:49;;;;;;;17.33;15.98;;;17.90;87.00;;;;;;5036286;29;20045;-70
2021/07/30 05:11:21;;;;;;;17.58;16.08;;;18.00;86.90;;;;;;5036048;29;20426;-70
2021/07/30 05:13:53;;;;;;;17.70;16.33;;;18.00;86.90;;;;;;5039347;29;20066;-70
2021/07/30 05:16:25;;;;;;;17.38;15.98;;;18.10;86.80;;;;;;5036301;29;20041;-71
2021/07/30 05:18:57;;;;;;;17.83;16.42;;;18.20;87.40;;;;;;5037674;29;20046;-70
2021/07/30 05:21:29;;;;;;;17.98;16.38;;;18.20;87.10;;;;;;5039674;29;20134;-71
2021/07/30 05:24:01;;;;;;;18.40;16.77;;;18.20;87.10;;;;;;5037725;29;20511;-71
2021/07/30 05:26:33;;;;;;;18.27;16.77;;;18.20;86.90;;;;;;5037736;29;20084;-71
2021/07/30 05:29:08;;;;;;;17.77;16.38;;;18.10;86.90;;;;;;5033956;29;20048;-70
2021/07/30 05:31:40;;;;;;;17.90;16.40;;;18.10;86.90;;;;;;5021586;29;20037;-70
2021/07/30 05:34:12;;;;;;;17.92;16.52;;;18.00;86.80;;;;;;5038510;29;20045;-71
2021/07/30 05:36:44;;;;;;;17.95;16.58;;;18.00;86.80;;;;;;5017277;29;20438;-70
2021/07/30 05:39:16;;;;;;;18.38;16.95;;;18.10;86.90;;;;;;5033638;29;20412;-70
2021/07/30 05:41:48;;;;;;;18.58;17.05;;;18.30;86.90;;;;;;5034780;29;20072;-71
2021/07/30 05:44:20;;;;;;;18.27;16.70;;;18.30;86.50;;;;;;5035358;29;20102;-71
2021/07/30 05:46:51;;;;;;;18.13;16.40;;;18.50;86.40;;;;;;5031945;29;20068;-70
2021/07/30 05:49:23;;;;;;;19.52;17.67;;;18.50;86.30;;;;;;5016869;29;20140;-70
2021/07/30 05:51:55;;;;;;;18.48;16.92;;;18.60;86.10;;;;;;5036433;29;20216;-70
2021/07/30 05:54:27;;;;;;;17.65;16.25;;;18.70;86.10;;;;;;5039903;29;20591;-70
2021/07/30 05:56:59;;;;;;;18.55;17.15;;;18.80;85.90;;;;;;5030636;29;20128;-70
2021/07/30 05:59:31;;;;;;;18.75;17.35;;;19.00;85.70;;;;;;5034831;29;20420;-71
2021/07/30 06:02:03;;;;;;;18.75;17.33;;;19.10;85.60;;;;;;5040182;29;20109;-72
2021/07/30 06:04:35;;;;;;;19.40;17.80;;;19.30;84.90;;;;;;5038833;29;20452;-70
2021/07/30 06:07:07;;;;;;;19.02;17.48;;;19.40;85.10;;;;;;5023757;29;20044;-70
2021/07/30 06:09:39;;;;;;;19.70;17.70;;;19.60;84.80;;;;;;5037554;29;20145;-69
2021/07/30 06:12:11;;;;;;;18.95;17.45;;;19.60;85.40;;;;;;5019473;29;20595;-71
2021/07/30 06:14:44;;;;;;;19.80;18.08;;;19.60;85.40;;;;;;5036314;29;20136;-70
2021/07/30 06:17:16;;;;;;;18.55;17.15;;;19.60;84.70;;;;;;5033806;29;20525;-71
2021/07/30 06:19:48;;;;;;;19.15;17.48;;;19.60;84.80;;;;;;5035401;29;20515;-71
2021/07/30 06:22:20;;;;;;;19.30;17.80;;;19.70;85.00;;;;;;5034434;29;20539;-71
2021/07/30 06:24:52;;;;;;;19.30;17.63;;;19.60;84.50;;;;;;5019622;29;20112;-73
2021/07/30 06:27:25;;;;;;;19.52;18.05;;;19.60;84.10;;;;;;5036369;29;20049;-72
2021/07/30 06:29:59;;;;;;;19.27;17.77;;;19.60;84.70;;;;;;5036935;29;20049;-73
2021/07/30 06:32:31;;;;;;;19.13;17.65;;;19.60;85.00;;;;;;5017936;29;20499;-74
2021/07/30 06:35:05;;;;;;;18.65;17.15;;;19.70;85.00;;;;;;5033647;29;20068;-74
2021/07/30 06:37:37;;;;;;;18.80;17.25;;;19.70;84.40;;;;;;5036534;29;20061;-73
2021/07/30 06:40:10;;;;;;;18.98;17.48;;;19.70;84.10;;;;;;5017535;29;20504;-73
2021/07/30 06:42:42;;;;;;;18.55;16.80;;;19.70;85.00;;;;;;5037062;29;20053;-74
2021/07/30 06:45:14;;;;;;;18.88;17.38;;;19.70;84.90;;;;;;5036629;29;20499;-74
2021/07/30 06:47:46;;;;;;;18.92;17.45;;;19.70;85.00;;;;;;5036526;29;20973;-74
2021/07/30 06:50:18;;;;;;;19.10;17.52;;;19.80;84.90;;;;;;5033804;29;20068;-74
2021/07/30 06:52:49;;;;;;;19.90;18.30;;;19.70;85.50;;;;;;5050480;29;20076;-74
2021/07/30 06:55:21;;;;;;;19.50;17.88;;;19.70;85.90;;;;;;5034430;29;20183;-74
2021/07/30 06:57:53;;;;;;;19.27;17.77;;;19.60;85.80;;;;;;5019925;29;20113;-74
2021/07/30 07:00:25;;;;;;;20.23;18.50;;;19.80;85.90;;;;;;5047338;29;20587;-74
2021/07/30 07:02:57;;;;;;;19.65;18.13;;;20.10;86.60;;;;;;5033033;29;20506;-74
2021/07/30 07:05:29;;;;;;;20.17;18.67;;;20.30;85.00;;;;;;5035638;29;20113;-74
2021/07/30 07:08:01;;;;;;;20.48;18.83;;;20.40;85.30;;;;;;5034663;29;20132;-74
2021/07/30 07:10:34;;;;;;;20.17;18.75;;;20.60;84.70;;;;;;5018089;29;20049;-74
2021/07/30 07:13:06;;;;;;;20.75;18.70;;;20.60;84.50;;;;;;5035825;29;20059;-74
2021/07/30 07:15:43;;;;;;;20.60;19.08;;;20.60;84.20;;;;;;5038851;29;20060;-74
2021/07/30 07:18:15;;;;;;;20.05;18.55;;;20.60;84.00;;;;;;5035047;29;20135;-73
2021/07/30 07:20:47;;;;;;;20.70;19.10;;;20.60;84.70;;;;;;5038033;29;20050;-74
2021/07/30 07:23:20;;;;;;;20.05;18.50;;;20.60;83.70;;;;;;5037769;29;20755;-73
2021/07/30 07:25:52;;;;;;;20.52;18.95;;;20.70;83.60;;;;;;5036506;29;20424;-73
2021/07/30 07:28:24;;;;;;;19.30;17.80;;;20.70;83.10;;;;;;5038029;29;20049;-74
2021/07/30 07:30:56;;;;;;;20.45;18.73;;;20.80;83.00;;;;;;5032886;29;20052;-75
2021/07/30 07:33:28;;;;;;;20.05;18.48;;;21.00;82.70;;;;;;5020556;29;20158;-73
2021/07/30 07:36:00;;;;;;;20.42;18.70;;;21.20;82.30;;;;;;5020497;29;20515;-73
2021/07/30 07:38:33;;;;;;;20.75;18.95;;;21.40;81.80;;;;;;5034165;29;20677;-73
2021/07/30 07:41:05;;;;;;;19.63;18.13;;;21.60;82.50;;;;;;5017816;29;20496;-74
2021/07/30 07:43:37;;;;;;;20.33;18.83;;;21.70;80.90;;;;;;5036550;29;20069;-74
2021/07/30 07:46:09;;;;;;;19.70;18.05;;;21.80;79.60;;;;;;5020818;29;20089;-74
2021/07/30 07:48:41;;;;;;;19.67;18.23;;;21.90;79.90;;;;;;5038129;29;20519;-74
2021/07/30 07:51:13;;;;;;;20.70;19.20;;;22.10;80.00;;;;;;5036570;29;20136;-73
2021/07/30 07:53:45;;;;;;;19.92;18.30;;;22.20;79.40;;;;;;5037768;29;20069;-74
2021/07/30 07:56:17;;;;;;;20.17;18.67;;;22.30;79.20;;;;;;5003724;29;20049;-74
2021/07/30 07:58:49;;;;;;;20.20;18.80;;;22.40;78.90;;;;;;5014841;29;20089;-74
2021/07/30 08:01:21;;;;;;;20.17;18.67;;;22.50;77.50;;;;;;5018443;29;20065;-74
2021/07/30 08:03:53;;;;;;;20.85;19.30;;;22.60;77.00;;;;;;5035388;29;20059;-74
2021/07/30 08:06:25;;;;;;;20.58;18.98;;;22.70;77.60;;;;;;5033105;29;20053;-74
2021/07/30 08:08:57;;;;;;;20.65;19.15;;;22.80;76.50;;;;;;5036450;29;20061;-74
2021/07/30 08:11:29;;;;;;;21.17;19.58;;;22.90;77.00;;;;;;5035034;29;20132;-74
2021/07/30 08:14:00;;;;;;;21.33;19.73;;;23.00;77.70;;;;;;5036389;29;20048;-74
2021/07/30 08:16:32;;;;;;;20.83;19.13;;;23.20;75.00;;;;;;5036192;29;20655;-74
2021/07/30 08:19:04;;;;;;;20.23;18.80;;;23.30;74.10;;;;;;5034992;29;20484;-74
2021/07/30 08:21:36;;;;;;;21.20;19.50;;;23.30;74.00;;;;;;5035265;29;20140;-74
2021/07/30 08:24:08;;;;;;;20.23;18.83;;;23.40;73.30;;;;;;5033727;29;20053;-74
2021/07/30 08:26:40;;;;;;;20.75;19.08;;;23.50;74.10;;;;;;5021201;29;20144;-75
2021/07/30 08:29:12;;;;;;;20.33;18.83;;;23.60;72.80;;;;;;5026088;29;20458;-74
2021/07/30 08:31:44;;;;;;;20.77;19.27;;;23.60;73.70;;;;;;5035903;29;20048;-74
2021/07/30 08:34:16;;;;;;;21.00;19.40;;;23.70;69.00;;;;;;5024302;29;20166;-74
2021/07/30 08:36:48;;;;;;;20.88;19.17;;;23.80;72.00;;;;;;5040349;29;20112;-74
2021/07/30 08:39:20;;;;;;;20.95;19.45;;;24.00;71.40;;;;;;5039228;29;20393;-74
2021/07/30 08:41:58;;;;;;;20.90;19.40;;;24.10;72.70;;;;;;5040684;29;20096;-74
2021/07/30 08:44:32;;;;;;;20.35;18.95;;;24.20;69.30;;;;;;5024545;29;20080;-74
2021/07/30 08:47:04;;;;;;;20.95;19.45;;;24.20;68.60;;;;;;5039196;29;20061;-74
2021/07/30 08:49:37;;;;;;;20.33;18.63;;;24.30;70.00;;;;;;5038778;29;20052;-74
2021/07/30 08:52:11;;;;;;;20.42;19.02;;;24.50;66.90;;;;;;5041838;29;20767;-74
2021/07/30 08:54:42;;;;;;;20.88;19.40;;;24.60;68.30;;;;;;5028880;29;20081;-74
2021/07/30 08:57:14;;;;;;;20.17;18.70;;;24.60;68.10;;;;;;5016583;29;20140;-74
2021/07/30 08:59:46;;;;;;;20.30;18.90;;;24.70;69.30;;;;;;5033836;29;20598;-74
2021/07/30 09:02:18;;;;;;;20.38;18.77;;;24.70;68.70;;;;;;5037654;29;20056;-74
2021/07/30 09:04:50;;;;;;;20.48;18.88;;;24.80;68.90;;;;;;5037811;29;20132;-74
2021/07/30 09:07:38;;;;;;;21.65;19.98;;;24.90;67.80;;;;;;5021083;29;20104;-74
2021/07/30 09:10:10;;;;;;;21.42;19.92;;;25.00;68.40;;;;;;5035655;29;20140;-74
2021/07/30 09:12:42;;;;;;;21.55;20.05;;;25.20;69.10;;;;;;5039346;29;20127;-74
2021/07/30 09:15:24;;;;;;;20.67;19.17;;;25.30;69.10;;;;;;5038407;29;20477;-75
2021/07/30 09:17:56;;;;;;;21.55;19.88;;;25.40;68.50;;;;;;5035174;29;20105;-75
2021/07/30 09:20:28;;;;;;;21.58;19.90;;;25.50;67.50;;;;;;5017837;29;20140;-75
2021/07/30 09:23:00;;;;;;;21.38;19.83;;;25.60;68.40;;;;;;5008132;29;20080;-75
2021/07/30 09:25:37;;;;;;;22.00;20.40;;;25.70;67.60;;;;;;5008573;29;20034;-75
2021/07/30 09:28:09;;;;;;;21.35;19.75;;;25.80;69.40;;;;;;5022247;29;20726;-75
2021/07/30 09:30:41;;;;;;;21.70;20.08;;;25.90;67.70;;;;;;5004902;29;20045;-75
2021/07/30 09:33:24;;;;;;;21.90;20.25;;;25.90;67.40;;;;;;5037456;29;20105;-75
2021/07/30 09:35:58;;;;;;;21.95;20.35;;;25.90;68.30;;;;;;5033440;29;20044;-75
2021/07/30 09:38:30;;;;;;;22.90;21.10;;;26.00;68.50;;;;;;5033053;29;20077;-75
2021/07/30 09:41:13;;;;;;;22.23;20.58;;;26.10;67.40;;;;;;5019580;29;20060;-75
2021/07/30 09:43:45;;;;;;;21.77;20.17;;;26.20;69.50;;;;;;5054063;29;20049;-75
2021/07/30 09:46:17;;;;;;;22.35;20.75;;;26.30;67.90;;;;;;5036530;29;20148;-76
2021/07/30 09:48:53;;;;;;;21.90;20.30;;;26.30;68.70;;;;;;5021116;29;20144;-75
2021/07/30 09:51:26;;;;;;;21.63;20.02;;;26.40;68.80;;;;;;5037306;29;20120;-75
2021/07/30 09:53:59;;;;;;;22.65;21.05;;;26.50;67.10;;;;;;5038647;29;20053;-74
2021/07/30 09:56:31;;;;;;;22.05;20.42;;;26.60;65.30;;;;;;5037225;29;20045;-75
2021/07/30 09:59:05;;;;;;;22.02;20.30;;;26.70;62.80;;;;;;5039224;29;20072;-75
2021/07/30 10:01:37;;;;;;;21.98;20.30;;;26.80;65.50;;;;;;5037865;29;20507;-75
2021/07/30 10:04:10;;;;;;;21.38;19.67;;;26.90;63.30;;;;;;5036028;29;20060;-74
2021/07/30 10:06:41;;;;;;;20.88;19.38;;;26.90;60.20;;;;;;5037483;29;20053;-75
2021/07/30 10:09:14;;;;;;;21.80;20.10;;;26.80;61.60;;;;;;5029842;29;20054;-74
2021/07/30 10:11:47;;;;;;;21.48;19.88;;;26.70;61.70;;;;;;5039735;29;20037;-75
2021/07/30 10:14:25;;;;;;;21.08;19.55;;;26.70;63.20;;;;;;5037291;29;20049;-73
2021/07/30 10:17:02;;;;;;;20.45;19.05;;;26.60;62.30;;;;;;5037666;29;20089;-74
2021/07/30 10:19:36;;;;;;;21.60;20.10;;;26.70;59.30;;;;;;5037784;29;20049;-74
2021/07/30 10:22:10;;;;;;;22.40;20.80;;;26.90;59.50;;;;;;5038388;29;20057;-74
2021/07/30 10:24:54;;;;;;;21.42;19.83;;;27.10;60.10;;;;;;5036660;29;20040;-73
2021/07/30 10:27:27;;;;;;;20.83;19.33;;;27.00;56.20;;;;;;5033673;29;20052;-74
2021/07/30 10:30:10;;;;;;;21.25;19.75;;;27.00;56.60;;;;;;5012721;29;20049;-75
2021/07/30 10:32:59;;;;;;;20.52;19.08;;;27.20;53.80;;;;;;5034935;29;20143;-75
2021/07/30 10:35:31;;;;;;;20.60;19.20;;;27.30;57.70;;;;;;5036354;29;20076;-74
2021/07/30 10:38:20;;;;;;;20.98;19.48;;;27.50;57.20;;;;;;5028397;29;20136;-75
2021/07/30 10:40:58;;;;;;;20.17;18.77;;;27.70;54.80;;;;;;5022456;29;20060;-75
2021/07/30 10:43:33;;;;;;;19.85;18.38;;;27.60;55.80;;;;;;5020457;29;20416;-75
2021/07/30 10:46:08;;;;;;;20.00;18.60;;;27.40;53.60;;;;;;5025590;29;20128;-75
2021/07/30 10:48:43;;;;;;;20.50;19.02;;;27.30;51.70;;;;;;5036508;29;20076;-75
2021/07/30 10:51:18;;;;;;;21.42;19.58;;;27.30;48.50;;;;;;5018543;29;20072;-75
2021/07/30 10:54:01;;;;;;;20.67;19.15;;;27.40;49.30;;;;;;5030369;29;20049;-76
2021/07/30 10:56:32;;;;;;;20.98;19.40;;;27.60;51.50;;;;;;5035694;29;20105;-76
2021/07/30 10:59:05;;;;;;;20.27;18.88;;;27.70;51.10;;;;;;5033433;29;20067;-75
2021/07/30 11:01:39;;;;;;;20.90;19.40;;;27.60;51.30;;;;;;5034613;29;20049;-76
2021/07/30 11:04:12;;;;;;;20.63;19.13;;;27.60;50.70;;;;;;5040323;29;20052;-76
2021/07/30 11:06:43;;;;;;;20.70;19.20;;;27.70;52.40;;;;;;5035964;29;20551;-76
2021/07/30 11:09:17;;;;;;;21.58;19.88;;;27.70;52.90;;;;;;5036180;29;20419;-76
2021/07/30 11:11:55;;;;;;;20.50;19.02;;;27.60;49.30;;;;;;5020901;29;20044;-76
2021/07/30 11:14:28;;;;;;;20.75;19.25;;;27.50;47.60;;;;;;5032254;29;20045;-76
2021/07/30 11:17:06;;;;;;;20.90;19.40;;;27.50;50.50;;;;;;5033171;29;20057;-76
2021/07/30 11:19:50;;;;;;;20.67;19.17;;;27.60;51.30;;;;;;5038850;29;20442;-75
2021/07/30 11:22:22;;;;;;;19.98;18.55;;;27.80;51.30;;;;;;5018708;29;20040;-76
2021/07/30 11:24:54;;;;;;;20.27;18.88;;;27.80;51.30;;;;;;5036439;29;20037;-76
2021/07/30 11:27:26;;;;;;;20.77;19.23;;;27.70;46.10;;;;;;5019652;29;20045;-76
2021/07/30 11:29:59;;;;;;;20.77;19.17;;;27.70;48.90;;;;;;5029858;29;20270;-76
2021/07/30 11:32:32;;;;;;;20.65;19.23;;;27.80;49.10;;;;;;5005051;29;20689;-76
2021/07/30 11:35:09;;;;;;;20.92;19.42;;;28.00;52.40;;;;;;5035373;29;20089;-76
2021/07/30 11:37:41;;;;;;;20.90;19.40;;;28.00;51.00;;;;;;5035832;29;20060;-76
2021/07/30 11:40:16;;;;;;;20.95;19.45;;;28.20;52.20;;;;;;5033997;29;20465;-76
2021/07/30 11:42:48;;;;;;;21.30;19.70;;;28.30;50.50;;;;;;5036769;29;20055;-75
2021/07/30 11:45:20;;;;;;;20.38;18.90;;;28.50;52.30;;;;;;5034985;29;20468;-76
2021/07/30 11:47:53;;;;;;;20.38;18.88;;;28.50;50.50;;;;;;5030992;29;20057;-75
2021/07/30 11:50:26;;;;;;;20.52;19.13;;;28.60;49.90;;;;;;5018641;29;20132;-76
2021/07/30 11:53:08;;;;;;;20.90;19.40;;;28.70;48.60;;;;;;5004157;29;20049;-75
2021/07/30 11:55:54;;;;;;;19.88;18.48;;;28.60;50.50;;;;;;5011894;29;20705;-76
2021/07/30 11:58:26;;;;;;;21.08;19.55;;;28.70;50.00;;;;;;5034406;29;20044;-75
2021/07/30 12:01:12;;;;;;;20.75;19.15;;;28.80;51.60;;;;;;5019924;29;20040;-75
2021/07/30 12:04:03;;;;;;;21.15;19.60;;;28.80;51.80;;;;;;5031259;29;20051;-76
2021/07/30 12:06:47;;;;;;;21.13;19.73;;;28.90;52.30;;;;;;5032594;29;20507;-76
2021/07/30 12:09:20;;;;;;;21.40;19.80;;;28.80;51.60;;;;;;5038130;29;20101;-76
2021/07/30 12:11:55;;;;;;;21.60;20.08;;;28.90;51.60;;;;;;5031472;29;20060;-76
2021/07/30 12:14:30;;;;;;;20.60;19.10;;;28.80;52.20;;;;;;5018731;29;20053;-76
2021/07/30 12:17:03;;;;;;;21.83;19.92;;;28.90;52.50;;;;;;5035510;29;20060;-76
2021/07/30 12:19:36;;;;;;;21.08;19.58;;;28.90;51.70;;;;;;5035411;29;20120;-76
2021/07/30 12:22:09;;;;;;;21.85;19.80;;;29.00;51.80;;;;;;5006443;29;20067;-76
2021/07/30 12:24:49;;;;;;;21.40;19.77;;;29.10;52.10;;;;;;5036452;29;20041;-76
2021/07/30 12:27:21;;;;;;;21.73;20.20;;;29.00;51.30;;;;;;5017194;29;20056;-76
2021/07/30 12:29:53;;;;;;;21.58;19.92;;;29.00;50.80;;;;;;5015070;29;20049;-76
2021/07/30 12:32:35;;;;;;;21.75;20.15;;;29.10;50.30;;;;;;5032025;29;20053;-76
2021/07/30 12:35:14;;;;;;;21.75;20.25;;;29.10;51.10;;;;;;5034586;29;20515;-76
2021/07/30 12:38:07;;;;;;;21.65;20.05;;;29.20;50.90;;;;;;5017993;29;20062;-76
2021/07/30 12:40:39;;;;;;;20.83;19.42;;;29.10;51.50;;;;;;5034236;29;20106;-76
2021/07/30 12:43:18;;;;;;;20.52;19.13;;;29.10;50.60;;;;;;5035506;29;20458;-76
2021/07/30 12:45:50;;;;;;;21.33;19.73;;;29.10;49.90;;;;;;5034139;29;20053;-76
2021/07/30 12:48:23;;;;;;;21.13;19.63;;;29.20;52.40;;;;;;5003132;29;20057;-76
2021/07/30 12:50:55;;;;;;;21.55;19.95;;;29.40;51.70;;;;;;5032200;29;20046;-76
2021/07/30 12:53:27;;;;;;;22.02;20.42;;;29.40;51.70;;;;;;5033578;29;20957;-75
2021/07/30 12:56:09;;;;;;;22.17;20.55;;;29.30;47.50;;;;;;5030557;29;20037;-75
2021/07/30 12:58:54;;;;;;;21.67;20.17;;;29.30;48.20;;;;;;5014550;29;20041;-75
2021/07/30 13:01:25;;;;;;;21.55;20.05;;;29.40;51.70;;;;;;5051175;29;20535;-75